createdAt,value
2023-12-09T00:03:35.445Z,85.70
2023-12-09T00:08:39.090Z,81.70
2023-12-09T00:13:42.312Z,77.50
2023-12-09T00:18:46.515Z,91.00
2023-12-09T00:23:50.160Z,105.20
2023-12-09T00:28:53.971Z,81.70
2023-12-09T00:33:57.232Z,108.00
2023-12-09T00:39:00.501Z,96.20
2023-12-09T00:44:03.798Z,98.10
2023-12-09T00:49:07.384Z,93.60
2023-12-09T00:54:10.745Z,85.50
2023-12-09T00:59:13.877Z,85.60
2023-12-09T01:04:17.638Z,82.30
2023-12-09T01:09:21.211Z,89.40
2023-12-09T01:14:24.686Z,83.00
2023-12-09T01:19:28.619Z,86.80
2023-12-09T01:24:32.371Z,155.80
2023-12-09T01:29:37.885Z,78.60
2023-12-09T01:34:42.229Z,77.90
2023-12-09T01:39:45.529Z,81.50
2023-12-09T01:49:52.168Z,77.60
2023-12-09T01:54:55.566Z,76.30
2023-12-09T01:59:58.800Z,86.30
2023-12-09T02:05:03.649Z,93.50
2023-12-09T02:10:07.797Z,108.90
2023-12-09T02:15:25.943Z,476.60
2023-12-09T02:20:31.138Z,130.00
2023-12-09T02:25:35.667Z,154.60
2023-12-09T02:30:51.609Z,185.60
2023-12-09T02:35:56.619Z,154.10
2023-12-09T02:41:00.068Z,98.50
2023-12-09T02:46:04.010Z,109.10
2023-12-09T02:51:08.274Z,116.40
2023-12-09T02:56:11.950Z,159.30
2023-12-09T03:01:15.430Z,153.60
2023-12-09T03:06:18.960Z,124.10
2023-12-09T03:11:22.493Z,90.10
2023-12-09T03:16:25.857Z,133.80
2023-12-09T03:21:29.243Z,93.90
2023-12-09T03:26:33.257Z,81.80
2023-12-09T03:31:42.452Z,91.70
2023-12-09T03:36:45.665Z,95.10
2023-12-09T03:41:48.915Z,90.90
2023-12-09T03:46:52.438Z,84.90
2023-12-09T03:51:55.725Z,91.70
2023-12-09T03:56:58.977Z,90.40
2023-12-09T04:02:02.257Z,91.80
2023-12-09T04:07:05.470Z,87.80
2023-12-09T04:12:08.912Z,86.50
2023-12-09T04:17:12.283Z,91.30
2023-12-09T04:22:15.491Z,90.60
2023-12-09T04:27:18.859Z,83.10
2023-12-09T04:32:22.234Z,81.90
2023-12-09T04:37:26.138Z,85.80
2023-12-09T04:42:32.630Z,83.70
2023-12-09T04:47:36.363Z,93.00
2023-12-09T04:52:39.725Z,88.30
2023-12-09T04:57:43.068Z,86.50
2023-12-09T05:02:46.384Z,87.40
2023-12-09T05:07:49.686Z,91.10
2023-12-09T05:12:52.996Z,86.40
2023-12-09T05:17:56.291Z,82.00
2023-12-09T05:22:59.630Z,83.60
2023-12-09T05:28:02.933Z,85.80
2023-12-09T05:33:06.347Z,85.70
2023-12-09T05:38:09.884Z,83.10
2023-12-09T05:43:13.179Z,82.80
2023-12-09T05:48:17.037Z,84.30
2023-12-09T06:00:04.928Z,83.60
2023-12-09T06:05:10.291Z,88.80
2023-12-09T06:10:14.660Z,87.30
2023-12-09T06:15:19.509Z,88.70
2023-12-09T06:20:23.142Z,91.00
2023-12-09T06:25:26.318Z,80.80
2023-12-09T06:30:30.142Z,78.60
2023-12-09T06:35:33.695Z,72.60
2023-12-09T06:40:36.998Z,81.60
2023-12-09T06:45:40.229Z,77.90
2023-12-09T06:50:44.712Z,72.30
2023-12-09T06:55:47.947Z,74.90
2023-12-09T07:00:51.751Z,73.00
2023-12-09T07:05:55.131Z,64.90
2023-12-09T07:11:00.958Z,62.90
2023-12-09T07:16:05.356Z,70.20
2023-12-09T07:21:08.737Z,69.80
2023-12-09T07:26:13.660Z,69.60
2023-12-09T07:31:17.465Z,65.80
2023-12-09T07:36:21.501Z,69.70
2023-12-09T07:41:24.920Z,68.90
2023-12-09T07:46:28.737Z,72.60
2023-12-09T07:51:32.964Z,65.70
2023-12-09T07:56:36.398Z,62.20
2023-12-09T08:01:43.102Z,117.00
2023-12-09T08:06:47.164Z,127.10
2023-12-09T08:11:53.621Z,110.40
2023-12-09T08:16:57.822Z,81.20
2023-12-09T08:22:01.632Z,85.70
2023-12-09T08:27:05.444Z,86.20
2023-12-09T08:32:10.719Z,79.20
2023-12-09T08:37:13.921Z,77.70
2023-12-09T08:42:17.125Z,88.50
2023-12-09T08:47:20.744Z,109.60
2023-12-09T08:52:24.059Z,156.00
2023-12-09T08:57:28.631Z,99.50
2023-12-09T09:02:33.862Z,123.40
2023-12-09T09:07:41.721Z,103.90
2023-12-09T09:12:45.559Z,91.60
2023-12-09T09:17:49.293Z,99.80
2023-12-09T09:22:52.557Z,104.20
2023-12-09T09:27:56.201Z,91.80
2023-12-09T09:33:00.432Z,94.90
2023-12-09T09:38:03.783Z,125.70
2023-12-09T09:43:13.763Z,108.90
2023-12-09T09:48:25.681Z,88.50
2023-12-09T09:53:38.974Z,114.10
2023-12-09T09:58:43.726Z,111.10
2023-12-09T10:03:47.953Z,138.70
2023-12-09T10:08:52.524Z,150.20
2023-12-09T10:13:55.932Z,152.30
2023-12-09T10:18:59.254Z,115.30
2023-12-09T10:24:05.502Z,191.00
2023-12-09T10:29:08.831Z,120.20
2023-12-09T10:34:14.240Z,198.90
2023-12-09T10:39:21.018Z,170.10
2023-12-09T10:44:24.328Z,463.80
2023-12-09T10:49:27.799Z,416.30
2023-12-09T10:54:31.594Z,484.60
2023-12-09T10:59:36.281Z,534.30
2023-12-09T11:04:40.291Z,575.40
2023-12-09T11:09:44.683Z,479.20
2023-12-09T11:14:48.052Z,206.30
2023-12-09T11:19:51.561Z,444.40
2023-12-09T11:24:55.493Z,246.00
2023-12-09T11:30:00.784Z,318.80
2023-12-09T11:35:06.312Z,363.70
2023-12-09T11:40:11.394Z,195.40
2023-12-09T11:45:16.237Z,166.70
2023-12-09T11:50:20.474Z,163.70
2023-12-09T11:55:24.663Z,116.80
2023-12-09T12:00:28.167Z,137.80
2023-12-09T12:05:33.149Z,180.50
2023-12-09T12:10:39.033Z,168.00
2023-12-09T12:15:43.972Z,274.80
2023-12-09T12:20:50.070Z,173.60
2023-12-09T12:25:55.455Z,143.40
2023-12-09T12:31:03.410Z,140.80
2023-12-09T12:36:07.507Z,203.20
2023-12-09T12:41:11.155Z,180.60
2023-12-09T12:46:14.403Z,157.40
2023-12-09T12:51:18.595Z,145.70
2023-12-09T12:56:22.104Z,171.20
2023-12-09T13:01:25.467Z,127.20
2023-12-09T13:06:29.805Z,162.10
2023-12-09T13:11:33.543Z,172.40
2023-12-09T13:16:38.682Z,164.30
2023-12-09T13:21:44.451Z,426.40
2023-12-09T13:26:48.737Z,151.20
2023-12-09T13:31:52.304Z,302.00
2023-12-09T13:36:56.483Z,205.50
2023-12-09T13:41:59.970Z,151.60
2023-12-09T13:47:03.509Z,195.10
2023-12-09T13:52:07.230Z,144.00
2023-12-09T13:57:11.321Z,164.50
2023-12-09T14:02:15.086Z,226.30
2023-12-09T14:07:19.217Z,197.80
2023-12-09T14:12:22.548Z,128.20
2023-12-09T14:17:26.447Z,178.90
2023-12-09T14:22:32.546Z,190.40
2023-12-09T14:27:37.018Z,137.20
2023-12-09T14:32:45.812Z,170.00
2023-12-09T14:37:52.075Z,172.60
2023-12-09T14:42:55.771Z,219.90
2023-12-09T14:48:04.961Z,204.30
2023-12-09T14:53:15.625Z,176.50
2023-12-09T14:58:19.640Z,194.40
2023-12-09T15:03:23.118Z,170.80
2023-12-09T15:08:27.019Z,179.10
2023-12-09T15:13:31.917Z,160.80
2023-12-09T15:18:35.662Z,385.50
2023-12-09T15:23:39.249Z,266.80
2023-12-09T15:28:42.789Z,167.90
2023-12-09T15:33:46.489Z,135.60
2023-12-09T15:38:50.205Z,131.60
2023-12-09T15:43:53.440Z,226.10
2023-12-09T15:48:57.127Z,199.60
2023-12-09T15:54:01.024Z,173.60
2023-12-09T15:59:04.609Z,160.60
2023-12-09T16:04:08.553Z,251.10
2023-12-09T16:09:14.068Z,340.30
2023-12-09T16:14:17.497Z,260.80
2023-12-09T16:19:20.890Z,511.50
2023-12-09T16:24:28.952Z,232.00
2023-12-09T16:29:32.785Z,268.30
2023-12-09T16:34:36.306Z,215.20
2023-12-09T16:39:40.125Z,168.30
2023-12-09T16:44:43.722Z,222.60
2023-12-09T16:49:47.259Z,148.30
2023-12-09T16:54:50.775Z,164.50
2023-12-09T16:59:54.622Z,163.30
2023-12-09T17:04:58.949Z,205.20
2023-12-09T17:10:02.220Z,208.70
2023-12-09T17:15:06.770Z,166.40
2023-12-09T17:20:10.888Z,198.90
2023-12-09T17:25:15.019Z,155.50
2023-12-09T17:30:19.131Z,174.30
2023-12-09T17:35:24.220Z,154.00
2023-12-09T17:40:27.851Z,138.60
2023-12-09T17:45:31.268Z,195.40
2023-12-09T17:50:34.962Z,161.40
2023-12-09T17:55:38.559Z,190.80
2023-12-09T18:00:42.845Z,188.10
2023-12-09T18:05:46.408Z,171.50
2023-12-09T18:10:49.639Z,132.50
2023-12-09T18:15:52.883Z,134.50
2023-12-09T18:20:56.247Z,144.80
2023-12-09T18:26:00.282Z,125.80
2023-12-09T18:31:04.840Z,136.50
2023-12-09T18:36:09.701Z,165.10
2023-12-09T18:41:13.439Z,193.10
2023-12-09T18:46:18.002Z,146.90
2023-12-09T18:51:21.191Z,136.90
2023-12-09T18:56:25.964Z,199.10
2023-12-09T19:01:30.066Z,205.60
2023-12-09T19:06:42.205Z,168.80
2023-12-09T19:11:53.316Z,150.40
2023-12-09T19:16:58.224Z,142.30
2023-12-09T19:22:02.613Z,152.60
2023-12-09T19:27:06.870Z,139.30
2023-12-09T19:32:10.654Z,136.20
2023-12-09T19:37:14.110Z,134.40
2023-12-09T19:42:19.772Z,131.00
2023-12-09T19:47:23.358Z,117.60
2023-12-09T19:52:26.858Z,112.00
2023-12-09T19:57:31.242Z,121.20
2023-12-09T20:02:36.261Z,109.10
2023-12-09T20:07:41.311Z,104.90
2023-12-09T20:12:44.816Z,118.80
2023-12-09T20:17:48.368Z,109.60
2023-12-09T20:22:51.949Z,108.50
2023-12-09T20:27:58.276Z,113.10
2023-12-09T20:33:02.734Z,301.40
2023-12-09T20:38:06.682Z,130.50
2023-12-09T20:43:12.068Z,119.10
2023-12-09T20:48:17.670Z,114.90
2023-12-09T20:53:21.543Z,107.60
2023-12-09T20:58:25.425Z,109.90
2023-12-09T21:03:29.177Z,116.40
2023-12-09T21:08:33.014Z,108.10
2023-12-09T21:13:36.526Z,251.30
2023-12-09T21:18:40.055Z,112.00
2023-12-09T21:23:44.048Z,122.50
2023-12-09T21:28:47.415Z,111.10
2023-12-09T21:38:55.949Z,134.90
2023-12-09T21:43:59.518Z,121.60
2023-12-09T21:49:04.422Z,145.40
2023-12-09T21:54:08.788Z,143.10
2023-12-09T21:59:12.163Z,224.40
2023-12-09T22:04:15.970Z,155.10
2023-12-09T22:09:20.322Z,141.90
2023-12-09T22:14:24.356Z,145.50
2023-12-09T22:19:27.811Z,135.40
2023-12-09T22:24:31.232Z,121.50
2023-12-09T22:29:36.480Z,143.20
2023-12-09T22:34:39.894Z,138.90
2023-12-09T22:39:43.459Z,152.30
2023-12-09T22:44:46.766Z,136.10
2023-12-09T22:49:50.457Z,152.30
2023-12-09T22:54:54.153Z,137.80
2023-12-09T22:59:58.346Z,128.20
2023-12-09T23:05:01.794Z,135.10
2023-12-09T23:10:06.532Z,125.90
2023-12-09T23:15:10.812Z,149.10
2023-12-09T23:20:14.492Z,129.20
2023-12-09T23:25:18.310Z,129.30
2023-12-09T23:30:21.730Z,131.60
2023-12-09T23:35:25.136Z,124.00
2023-12-09T23:40:29.074Z,135.60
2023-12-09T23:45:33.021Z,141.40
2023-12-09T23:50:36.512Z,139.50
2023-12-09T23:55:39.711Z,120.90
